Time;durP1;ratioP1;P1;durP2;ratioP2;P2;SDS_P1;SDS_P2;PMS_P1;PMS_P2;Temp;Humidity;BMP_temperature;BMP_pressure;BME280_temperature;BME280_humidity;BME280_pressure;Samples;Min_cycle;Max_cycle;Signal;HPM_P1;HPM_P2
2021/08/26 00:07:32;;;;;;;;;25.00;21.75;;;;;18.51;59.87;101752.81;4924103;28;45370;-88
2021/08/26 00:09:58;;;;;;;;;22.25;17.50;;;;;18.44;60.44;101754.94;4923407;28;45321;-88
2021/08/26 00:12:23;;;;;;;;;24.00;21.75;;;;;18.35;60.71;101756.25;4923859;28;45511;-88
2021/08/26 00:14:49;;;;;;;;;23.25;21.50;;;;;18.27;61.70;101748.66;4906574;28;45406;-87
2021/08/26 00:17:14;;;;;;;;;21.50;18.75;;;;;18.26;61.41;101754.06;4906661;28;45813;-86
2021/08/26 00:19:41;;;;;;;;;22.75;20.50;;;;;18.22;61.65;101761.34;4923753;28;45430;-87
2021/08/26 00:22:07;;;;;;;;;21.50;20.00;;;;;18.15;61.53;101758.06;4923611;28;45282;-86
2021/08/26 00:24:32;;;;;;;;;18.50;18.50;;;;;18.13;61.15;101751.97;4906232;28;45293;-86
2021/08/26 00:26:58;;;;;;;;;23.75;19.00;;;;;18.19;62.19;101770.34;4923619;28;45369;-86
2021/08/26 00:29:23;;;;;;;;;23.50;21.75;;;;;18.13;61.74;101767.94;4922933;28;45457;-86
2021/08/26 00:31:48;;;;;;;;;21.75;19.00;;;;;18.10;62.35;101758.31;4905733;28;48329;-86
2021/08/26 00:34:13;;;;;;;;;22.50;21.50;;;;;18.06;62.40;101761.19;4923461;28;45223;-86
2021/08/26 00:36:39;;;;;;;;;25.50;23.00;;;;;17.99;62.11;101758.84;4905753;28;45657;-86
2021/08/26 00:39:04;;;;;;;;;20.00;20.00;;;;;17.98;62.12;101761.56;4923469;28;45489;-88
2021/08/26 00:41:30;;;;;;;;;24.00;23.00;;;;;17.98;62.42;101764.22;4923033;28;45323;-86
2021/08/26 00:43:56;;;;;;;;;21.00;20.50;;;;;17.95;62.46;101756.41;4923242;28;45749;-87
2021/08/26 00:46:21;;;;;;;;;22.75;20.00;;;;;17.94;62.49;101759.97;4913454;28;45755;-87
2021/08/26 00:48:48;;;;;;;;;19.00;17.75;;;;;17.88;63.61;101758.47;4906141;28;46021;-82
2021/08/26 00:51:14;;;;;;;;;22.75;21.75;;;;;17.84;63.43;101756.91;4904252;28;46961;-80
2021/08/26 00:53:40;;;;;;;;;20.25;18.50;;;;;17.77;63.46;101757.22;4906119;28;45303;-80
2021/08/26 00:56:16;;;;;;;;;20.50;19.25;;;;;17.77;62.89;101751.91;4902432;29;45328;-80
2021/08/26 00:58:49;;;;;;;;;23.00;18.50;;;;;17.77;63.37;101759.88;4911264;28;45501;-80
2021/08/26 01:01:27;;;;;;;;;20.75;19.75;;;;;17.73;63.64;101755.63;4923143;28;45484;-80
2021/08/26 01:04:00;;;;;;;;;19.75;18.00;;;;;17.69;63.77;101750.50;4923175;28;45650;-80
2021/08/26 01:06:46;;;;;;;;;20.75;18.00;;;;;17.65;64.39;101744.50;4922603;28;45795;-80
2021/08/26 01:09:14;;;;;;;;;22.00;20.25;;;;;17.58;63.99;101743.06;4922537;28;45666;-80
2021/08/26 01:11:42;;;;;;;;;23.00;19.75;;;;;17.57;64.31;101746.63;4905650;28;46324;-80
2021/08/26 01:14:12;;;;;;;;;21.75;19.50;;;;;17.51;63.99;101746.00;4923000;28;45356;-80
2021/08/26 01:16:38;;;;;;;;;22.25;18.75;;;;;17.51;64.17;101747.78;4922692;28;45219;-81
2021/08/26 01:19:04;;;;;;;;;16.25;15.50;;;;;17.49;63.97;101745.22;4911145;28;45423;-77
2021/08/26 01:21:30;;;;;;;;;20.00;15.25;;;;;17.46;64.36;101745.34;4922608;28;45525;-80
2021/08/26 01:23:58;;;;;;;;;15.75;15.25;;;;;17.42;64.55;101746.44;4922779;28;45662;-83
2021/08/26 01:26:29;;;;;;;;;18.50;15.00;;;;;17.38;64.41;101745.72;4922413;28;45351;-83
2021/08/26 01:29:00;;;;;;;;;19.75;17.00;;;;;17.31;64.66;101745.13;4922479;28;45174;-83
2021/08/26 01:31:26;;;;;;;;;19.50;16.50;;;;;17.28;64.95;101742.63;4922584;28;45488;-83
2021/08/26 01:33:53;;;;;;;;;16.25;16.25;;;;;17.27;64.90;101743.53;4922764;28;45260;-83
2021/08/26 01:36:18;;;;;;;;;21.50;16.00;;;;;17.26;64.92;101733.84;4905576;28;45295;-83
2021/08/26 01:38:44;;;;;;;;;12.00;12.00;;;;;17.26;64.45;101731.19;4905359;28;45877;-82
2021/08/26 01:41:13;;;;;;;;;18.50;16.00;;;;;17.27;64.42;101722.28;4904930;28;46345;-83
2021/08/26 01:43:38;;;;;;;;;16.00;13.00;;;;;17.28;64.46;101724.03;4922138;28;45616;-82
2021/08/26 01:46:04;;;;;;;;;18.75;15.75;;;;;17.29;64.69;101712.44;4922149;28;45465;-84
2021/08/26 01:48:29;;;;;;;;;12.50;11.75;;;;;17.27;64.37;101721.41;4922605;28;45406;-83
2021/08/26 01:50:54;;;;;;;;;14.25;13.50;;;;;17.26;64.79;101725.88;4922430;28;45287;-83
2021/08/26 01:53:20;;;;;;;;;14.25;13.50;;;;;17.20;64.84;101720.84;4921263;28;45250;-83
2021/08/26 01:55:46;;;;;;;;;13.50;12.50;;;;;17.23;65.15;101727.81;4922201;28;45274;-83
2021/08/26 01:58:13;;;;;;;;;14.50;12.75;;;;;17.20;64.87;101731.47;4922049;28;45798;-85
2021/08/26 02:00:39;;;;;;;;;12.00;12.00;;;;;17.18;64.33;101728.03;4922238;28;46513;-85
2021/08/26 02:03:05;;;;;;;;;17.50;15.50;;;;;17.09;65.34;101722.16;4920498;28;45309;-88
2021/08/26 02:05:30;;;;;;;;;13.75;12.50;;;;;17.02;65.10;101712.75;4905393;28;45325;-86
2021/08/26 02:07:55;;;;;;;;;11.75;11.75;;;;;17.01;65.60;101716.34;4904955;28;46203;-85
2021/08/26 02:10:21;;;;;;;;;11.75;11.25;;;;;16.99;64.96;101713.75;4921980;28;45464;-84
2021/08/26 02:12:47;;;;;;;;;10.50;9.50;;;;;16.94;65.65;101706.94;4904832;28;45434;-84
2021/08/26 02:15:12;;;;;;;;;10.50;10.50;;;;;16.95;66.21;101716.59;4922570;28;45323;-82
2021/08/26 02:17:38;;;;;;;;;10.50;10.00;;;;;16.91;65.76;101715.03;4922100;28;45547;-82
2021/08/26 02:20:05;;;;;;;;;13.00;11.75;;;;;16.89;66.03;101728.34;4904883;28;47194;-81
2021/08/26 02:22:31;;;;;;;;;10.50;8.75;;;;;16.87;65.92;101720.47;4892254;28;46083;-82
2021/08/26 02:24:56;;;;;;;;;13.75;9.50;;;;;16.91;66.07;101720.34;4902966;28;45380;-83
2021/08/26 02:27:21;;;;;;;;;14.00;11.50;;;;;16.92;66.03;101719.38;4922085;28;45399;-84
2021/08/26 02:29:47;;;;;;;;;12.00;11.25;;;;;16.91;66.20;101725.66;4921934;28;45246;-83
2021/08/26 02:32:12;;;;;;;;;12.25;10.75;;;;;16.85;66.09;101711.69;4921537;28;45263;-83
2021/08/26 02:34:37;;;;;;;;;12.75;11.00;;;;;16.87;66.40;101725.78;4921603;28;45421;-83
2021/08/26 02:37:04;;;;;;;;;14.00;12.00;;;;;16.85;66.05;101719.66;4921904;28;45486;-83
2021/08/26 02:39:29;;;;;;;;;13.25;11.75;;;;;16.82;66.29;101722.44;4904013;28;47070;-84
2021/08/26 02:41:55;;;;;;;;;10.50;9.50;;;;;16.85;66.27;101726.75;4921283;28;45436;-82
2021/08/26 02:44:20;;;;;;;;;12.00;11.25;;;;;16.84;66.13;101717.94;4904732;28;45291;-80
2021/08/26 02:46:45;;;;;;;;;13.25;10.25;;;;;16.81;66.23;101719.88;4921698;28;45549;-80
2021/08/26 02:49:11;;;;;;;;;13.00;10.00;;;;;16.75;66.54;101713.03;4921974;28;46289;-81
2021/08/26 02:51:36;;;;;;;;;9.25;9.25;;;;;16.70;66.27;101707.94;4922410;28;45470;-80
2021/08/26 02:54:01;;;;;;;;;12.50;10.75;;;;;16.70;66.40;101707.06;4921212;28;45433;-80
2021/08/26 02:56:27;;;;;;;;;11.00;8.25;;;;;16.67;66.73;101701.91;4904195;28;47088;-79
2021/08/26 02:58:52;;;;;;;;;7.00;7.00;;;;;16.68;66.64;101700.97;4921562;28;45452;-80
2021/08/26 03:01:18;;;;;;;;;10.75;9.50;;;;;16.70;66.72;101707.06;4921140;28;45501;-83
2021/08/26 03:03:43;;;;;;;;;11.00;9.75;;;;;16.66;66.37;101703.69;4921633;28;45414;-81
2021/08/26 03:06:08;;;;;;;;;7.00;5.00;;;;;16.63;66.30;101707.34;4921651;28;45288;-82
2021/08/26 03:08:34;;;;;;;;;10.25;10.25;;;;;16.62;66.88;101705.59;4921028;28;46248;-82
2021/08/26 03:11:00;;;;;;;;;12.00;10.75;;;;;16.59;67.00;101699.59;4921326;28;45258;-82
2021/08/26 03:13:26;;;;;;;;;13.50;10.75;;;;;16.59;66.76;101711.06;4922458;28;45349;-82
2021/08/26 03:15:51;;;;;;;;;10.50;8.25;;;;;16.57;66.85;101712.91;4924608;28;45304;-83
2021/08/26 03:18:17;;;;;;;;;11.00;10.25;;;;;16.58;67.03;101709.31;4923933;28;46525;-83
2021/08/26 03:20:42;;;;;;;;;11.25;9.75;;;;;16.57;66.62;101714.72;4924232;28;45244;-78
2021/08/26 03:23:08;;;;;;;;;11.75;10.00;;;;;16.57;67.28;101717.38;4924679;28;45441;-80
2021/08/26 03:25:34;;;;;;;;;11.50;11.50;;;;;16.55;66.72;101704.13;4924407;28;45580;-81
2021/08/26 03:27:59;;;;;;;;;9.25;9.25;;;;;16.51;66.86;101703.44;4924196;28;46467;-81
2021/08/26 03:30:25;;;;;;;;;14.25;12.00;;;;;16.52;67.02;101698.97;4924602;28;45213;-81
2021/08/26 03:32:50;;;;;;;;;12.75;12.00;;;;;16.49;66.99;101688.50;4924726;28;45490;-87
2021/08/26 03:35:16;;;;;;;;;8.50;7.00;;;;;16.45;66.79;101692.19;4906542;28;45416;-84
2021/08/26 03:37:41;;;;;;;;;12.50;9.50;;;;;16.47;67.05;101690.38;4924201;28;46435;-85
2021/08/26 03:40:07;;;;;;;;;12.00;10.75;;;;;16.48;66.87;101700.91;4923639;28;45339;-82
2021/08/26 03:42:33;;;;;;;;;10.50;8.25;;;;;16.46;66.67;101699.22;4924121;28;45401;-84
2021/08/26 03:44:58;;;;;;;;;11.00;9.25;;;;;16.41;67.01;101710.91;4924194;28;45372;-89
2021/08/26 03:47:23;;;;;;;;;10.50;10.50;;;;;16.37;67.24;101701.34;4906854;28;46847;-87
2021/08/26 03:49:49;;;;;;;;;9.50;9.50;;;;;16.33;66.85;101710.38;4923884;28;45332;-86
2021/08/26 03:52:14;;;;;;;;;9.25;8.50;;;;;16.28;66.99;101696.44;4924584;28;45248;-85
2021/08/26 03:54:40;;;;;;;;;10.50;9.75;;;;;16.26;67.33;101703.59;4924190;28;45381;-83
2021/08/26 03:57:05;;;;;;;;;8.25;8.25;;;;;16.30;67.06;101705.19;4923815;28;46287;-83
2021/08/26 03:59:31;;;;;;;;;7.75;7.75;;;;;16.27;66.96;101698.22;4924179;28;45323;-84
2021/08/26 04:01:56;;;;;;;;;8.50;6.00;;;;;16.29;66.65;101703.47;4924232;28;45283;-83
2021/08/26 04:04:21;;;;;;;;;9.50;7.50;;;;;16.29;66.83;101698.16;4923079;28;45610;-84
2021/08/26 04:06:47;;;;;;;;;10.50;7.00;;;;;16.31;66.96;101706.91;4923896;28;46221;-84
2021/08/26 04:09:12;;;;;;;;;7.25;7.00;;;;;16.24;67.16;101698.38;4906598;28;45295;-85
2021/08/26 04:11:37;;;;;;;;;12.25;10.75;;;;;16.25;66.99;101704.53;4906880;28;45202;-85
2021/08/26 04:14:03;;;;;;;;;9.00;7.50;;;;;16.26;66.91;101703.59;4906305;28;45232;-86
2021/08/26 04:16:28;;;;;;;;;9.75;7.50;;;;;16.27;66.88;101707.97;4906785;28;47263;-86
2021/08/26 04:18:53;;;;;;;;;6.00;6.00;;;;;16.26;66.87;101709.78;4923814;28;45482;-86
2021/08/26 04:21:19;;;;;;;;;8.25;6.25;;;;;16.27;66.62;101714.13;4924192;28;45252;-86
2021/08/26 04:23:44;;;;;;;;;10.75;6.75;;;;;16.26;66.92;101708.91;4923386;28;45216;-86
2021/08/26 04:26:09;;;;;;;;;7.50;7.50;;;;;16.27;66.72;101711.47;4915704;28;46185;-84
2021/08/26 04:28:35;;;;;;;;;10.50;9.25;;;;;16.26;67.05;101720.38;4923071;28;45182;-85
2021/08/26 04:31:00;;;;;;;;;11.75;8.75;;;;;16.23;67.20;101714.31;4923644;28;45465;-84
2021/08/26 04:33:26;;;;;;;;;7.00;7.00;;;;;16.18;67.07;101707.44;4923707;28;45280;-84
2021/08/26 04:35:51;;;;;;;;;5.25;3.50;;;;;16.17;67.04;101704.84;4923281;28;46330;-82
2021/08/26 04:38:16;;;;;;;;;9.25;5.25;;;;;16.13;67.52;101704.09;4923730;28;45379;-83
2021/08/26 04:40:42;;;;;;;;;7.00;5.25;;;;;16.13;67.28;101704.09;4923399;28;45408;-83
2021/08/26 04:43:07;;;;;;;;;8.25;6.00;;;;;16.13;67.47;101692.63;4923210;28;45599;-82
2021/08/26 04:45:32;;;;;;;;;7.00;6.00;;;;;16.14;67.32;101695.22;4919272;28;46157;-84
2021/08/26 04:47:58;;;;;;;;;6.25;5.75;;;;;16.15;67.40;101691.63;4920193;28;45379;-83
2021/08/26 04:50:23;;;;;;;;;5.50;5.50;;;;;16.16;67.13;101688.06;4930502;28;45740;-84
2021/08/26 04:52:49;;;;;;;;;7.25;5.50;;;;;16.19;67.27;101693.25;4922792;28;45601;-78
2021/08/26 04:55:14;;;;;;;;;6.00;5.00;;;;;16.23;67.18;101698.41;4922786;28;45627;-77
2021/08/26 04:57:39;;;;;;;;;5.50;5.50;;;;;16.25;67.16;101697.41;4905921;28;46050;-77
2021/08/26 05:00:06;;;;;;;;;6.25;5.25;;;;;16.29;66.73;101703.47;4922096;28;45444;-77
2021/08/26 05:02:31;;;;;;;;;6.50;4.75;;;;;16.29;67.29;101707.00;4923083;28;46567;-77
2021/08/26 05:04:57;;;;;;;;;4.00;4.00;;;;;16.29;67.10;101698.16;4917113;28;46352;-77
2021/08/26 05:07:22;;;;;;;;;6.50;6.50;;;;;16.32;67.17;101700.69;4923286;28;45244;-77
2021/08/26 05:09:47;;;;;;;;;7.75;7.75;;;;;16.33;66.91;101693.56;4923946;28;45399;-77
2021/08/26 05:12:13;;;;;;;;;7.75;6.25;;;;;16.31;66.66;101702.47;4921815;28;45564;-76
2021/08/26 05:14:38;;;;;;;;;4.00;4.00;;;;;16.29;67.34;101698.16;4909529;28;48582;-77
2021/08/26 05:17:04;;;;;;;;;5.25;4.00;;;;;16.27;67.22;101698.22;4922503;28;45192;-77
2021/08/26 05:19:29;;;;;;;;;6.00;5.00;;;;;16.26;67.57;101701.81;4923172;28;45164;-77
2021/08/26 05:21:54;;;;;;;;;5.00;3.50;;;;;16.27;67.36;101694.72;4922791;28;45329;-77
2021/08/26 05:24:20;;;;;;;;;7.50;5.50;;;;;16.29;67.35;101701.69;4922594;28;45752;-77
2021/08/26 05:26:45;;;;;;;;;5.00;4.00;;;;;16.36;67.71;101698.75;4920812;28;45483;-77
2021/08/26 05:29:10;;;;;;;;;2.75;2.00;;;;;16.41;67.59;101696.78;4922648;28;45186;-77
2021/08/26 05:31:36;;;;;;;;;4.75;4.75;;;;;16.49;67.23;101699.13;4923015;28;45243;-77
2021/08/26 05:34:02;;;;;;;;;5.25;4.00;;;;;16.50;67.34;101693.72;4928460;28;46641;-78
2021/08/26 05:36:27;;;;;;;;;3.00;3.00;;;;;16.56;67.20;101702.34;4919014;28;45283;-77
2021/08/26 05:38:53;;;;;;;;;4.25;4.25;;;;;16.61;67.06;101701.25;4919296;28;45282;-77
2021/08/26 05:41:18;;;;;;;;;4.00;2.00;;;;;16.66;67.13;101706.34;4921253;28;45351;-78
2021/08/26 05:43:43;;;;;;;;;3.25;2.00;;;;;16.69;67.06;101692.09;4905179;28;47111;-77
2021/08/26 05:46:09;;;;;;;;;3.00;3.00;;;;;16.69;67.33;101698.22;4922179;28;45408;-77
2021/08/26 05:48:34;;;;;;;;;2.25;2.25;;;;;16.69;67.22;101686.78;4922555;28;45285;-76
2021/08/26 05:51:00;;;;;;;;;2.50;2.00;;;;;16.74;67.25;101692.75;4922342;28;45553;-79
2021/08/26 05:53:26;;;;;;;;;2.25;2.25;;;;;16.77;67.06;101692.59;4922156;28;45465;-78
2021/08/26 05:55:52;;;;;;;;;3.00;3.00;;;;;16.82;66.75;101695.91;4922013;28;45232;-77
2021/08/26 05:58:17;;;;;;;;;2.25;2.25;;;;;16.81;67.08;101698.63;4922561;28;45265;-77
2021/08/26 06:00:43;;;;;;;;;3.25;2.75;;;;;16.84;67.26;101698.50;4921033;28;45642;-77
2021/08/26 06:03:08;;;;;;;;;3.00;2.50;;;;;16.86;66.96;101699.31;4905112;28;48135;-78
2021/08/26 06:05:34;;;;;;;;;3.00;3.00;;;;;16.85;67.59;101695.78;4921091;28;45426;-79
2021/08/26 06:08:00;;;;;;;;;2.25;2.25;;;;;16.87;67.34;101696.56;4905353;28;45503;-78
2021/08/26 06:10:25;;;;;;;;;5.50;3.75;;;;;16.90;67.58;101692.03;4921466;28;45599;-77
2021/08/26 06:12:50;;;;;;;;;5.25;2.00;;;;;16.92;67.55;101701.66;4895138;28;47349;-78
2021/08/26 06:15:16;;;;;;;;;3.75;3.75;;;;;16.95;67.21;101709.50;4922117;28;47093;-75
2021/08/26 06:17:41;;;;;;;;;5.00;3.75;;;;;16.94;67.47;101698.97;4921874;28;45283;-76
2021/08/26 06:20:10;;;;;;;;;5.25;4.25;;;;;16.94;67.31;101705.09;4921664;28;45654;-76
2021/08/26 06:22:36;;;;;;;;;6.25;5.25;;;;;16.95;67.21;101700.66;4921585;28;46584;-76
2021/08/26 06:25:02;;;;;;;;;5.50;3.75;;;;;16.95;67.28;101696.22;4902804;28;45368;-76
2021/08/26 06:27:28;;;;;;;;;3.00;2.75;;;;;17.01;67.28;101705.72;4920487;28;45531;-76
2021/08/26 06:29:53;;;;;;;;;3.25;3.25;;;;;17.00;66.97;101711.94;4922245;28;45568;-76
2021/08/26 06:32:19;;;;;;;;;3.50;3.50;;;;;17.05;67.21;101712.59;4910292;28;45271;-76
2021/08/26 06:34:45;;;;;;;;;4.00;3.00;;;;;17.07;67.46;101707.22;4904636;28;45525;-76
2021/08/26 06:37:11;;;;;;;;;5.50;3.25;;;;;17.14;67.64;101713.97;4905092;28;45273;-76
2021/08/26 06:39:37;;;;;;;;;4.00;2.25;;;;;17.16;67.25;101713.97;4921587;28;45585;-76
2021/08/26 06:42:02;;;;;;;;;3.25;3.00;;;;;17.18;67.21;101706.78;4920361;28;47013;-77
2021/08/26 06:44:27;;;;;;;;;4.00;3.50;;;;;17.20;67.06;101692.50;4898257;28;45333;-76
2021/08/26 06:46:53;;;;;;;;;3.00;3.00;;;;;17.28;67.11;101697.47;4920805;28;45350;-76
2021/08/26 06:49:18;;;;;;;;;4.50;2.00;;;;;17.31;66.89;101691.09;4927811;28;45330;-76
2021/08/26 06:51:44;;;;;;;;;1.50;1.50;;;;;17.36;67.34;101701.56;4903082;28;47041;-75
2021/08/26 06:54:09;;;;;;;;;4.75;2.75;;;;;17.41;67.00;101708.34;4920884;28;45382;-76
2021/08/26 06:56:34;;;;;;;;;1.00;1.00;;;;;17.41;67.01;101704.81;4924401;28;45437;-76
2021/08/26 06:59:00;;;;;;;;;4.00;2.00;;;;;17.41;67.36;101702.16;4922667;28;45400;-76
2021/08/26 07:01:25;;;;;;;;;2.00;2.00;;;;;17.40;67.89;101703.13;4924351;28;45489;-76
2021/08/26 07:03:53;;;;;;;;;3.00;3.00;;;;;17.41;67.86;101697.72;4924204;28;45380;-76
2021/08/26 07:06:18;;;;;;;;;4.25;3.00;;;;;17.45;67.49;101695.81;4924024;28;45382;-76
2021/08/26 07:08:44;;;;;;;;;2.25;2.25;;;;;17.46;67.73;101700.16;4923978;28;45670;-76
2021/08/26 07:11:09;;;;;;;;;2.00;2.00;;;;;17.44;67.41;101694.06;4923633;28;45382;-76
2021/08/26 07:13:35;;;;;;;;;5.50;3.00;;;;;17.51;67.33;101695.50;4905114;28;45442;-76
2021/08/26 07:16:00;;;;;;;;;3.25;2.50;;;;;17.54;67.39;101698.00;4926580;28;45486;-76
2021/08/26 07:18:26;;;;;;;;;2.00;2.00;;;;;17.55;67.13;101698.88;4923464;28;45507;-76
2021/08/26 07:20:51;;;;;;;;;3.00;3.00;;;;;17.56;67.53;101689.13;4922504;28;45804;-76
2021/08/26 07:23:17;;;;;;;;;4.75;2.75;;;;;17.64;67.79;101697.56;4924278;28;45383;-76
2021/08/26 07:25:42;;;;;;;;;3.50;3.00;;;;;17.71;67.47;101698.13;4922990;28;45501;-76
2021/08/26 07:28:08;;;;;;;;;4.00;3.00;;;;;17.72;67.59;101695.41;4905794;28;46117;-76
2021/08/26 07:30:34;;;;;;;;;4.75;3.50;;;;;17.75;67.45;101692.59;4924071;28;46257;-76
2021/08/26 07:33:00;;;;;;;;;3.50;3.50;;;;;17.78;66.81;101694.25;4906620;28;45735;-75
2021/08/26 07:35:25;;;;;;;;;2.00;2.00;;;;;17.84;67.45;101693.09;4920865;28;45303;-76
2021/08/26 07:37:50;;;;;;;;;2.00;2.00;;;;;17.87;66.54;101693.81;4924036;28;45414;-76
2021/08/26 07:40:16;;;;;;;;;2.25;2.00;;;;;17.90;66.90;101692.81;4923249;28;46522;-76
2021/08/26 07:42:41;;;;;;;;;3.00;2.50;;;;;17.92;66.88;101692.72;4923413;28;45498;-76
2021/08/26 07:45:08;;;;;;;;;4.75;2.00;;;;;17.97;67.00;101696.00;4923944;28;45462;-76
2021/08/26 07:47:33;;;;;;;;;3.00;3.00;;;;;17.98;66.70;101695.06;4892769;28;46539;-76
2021/08/26 07:49:58;;;;;;;;;5.50;5.00;;;;;17.94;66.46;101693.50;4925120;28;45682;-76
2021/08/26 07:52:24;;;;;;;;;2.25;2.25;;;;;17.94;66.82;101699.69;4923510;28;45205;-76
2021/08/26 07:54:50;;;;;;;;;3.00;3.00;;;;;17.99;66.99;101702.13;4905941;28;45289;-76
2021/08/26 07:57:15;;;;;;;;;5.50;5.50;;;;;18.06;67.09;101700.00;4924910;28;45224;-76
2021/08/26 07:59:41;;;;;;;;;4.00;4.00;;;;;18.10;66.89;101704.22;4921140;28;46422;-76
2021/08/26 08:02:07;;;;;;;;;4.00;3.50;;;;;18.14;67.39;101700.50;4925172;28;45391;-76
2021/08/26 08:04:32;;;;;;;;;4.00;3.00;;;;;18.17;66.75;101700.34;4935993;28;45503;-76
2021/08/26 08:06:59;;;;;;;;;5.50;4.00;;;;;18.21;66.86;101699.28;4923968;28;45473;-76
2021/08/26 08:09:24;;;;;;;;;4.00;4.00;;;;;18.24;66.70;101697.41;4922132;28;45722;-76
2021/08/26 08:11:50;;;;;;;;;4.75;3.00;;;;;18.30;67.04;101691.75;4921618;28;45418;-76
2021/08/26 08:14:15;;;;;;;;;4.00;3.75;;;;;18.37;66.42;101693.16;4922994;28;45493;-76
2021/08/26 08:16:40;;;;;;;;;5.00;5.00;;;;;18.47;66.77;101695.38;4923062;28;45493;-76
2021/08/26 08:19:07;;;;;;;;;4.75;4.75;;;;;18.52;66.57;101699.50;4921227;28;46443;-76
2021/08/26 08:21:32;;;;;;;;;5.00;4.00;;;;;18.59;66.07;101696.53;4923335;28;45511;-76
2021/08/26 08:23:58;;;;;;;;;7.75;5.25;;;;;18.60;65.88;101695.56;4922647;28;46562;-76
2021/08/26 08:26:24;;;;;;;;;5.50;5.50;;;;;18.62;65.77;101702.56;4922542;28;45373;-76
2021/08/26 08:28:49;;;;;;;;;7.00;5.75;;;;;18.60;65.52;101699.09;4922722;28;45247;-76
2021/08/26 08:31:14;;;;;;;;;6.00;4.75;;;;;18.64;65.82;101705.97;4922950;28;45315;-76
2021/08/26 08:33:43;;;;;;;;;7.25;3.50;;;;;18.67;65.80;101696.97;4922365;28;45515;-76
2021/08/26 08:36:09;;;;;;;;;9.25;5.50;;;;;18.69;65.60;101694.25;4923008;28;45481;-76
2021/08/26 08:38:34;;;;;;;;;6.75;5.75;;;;;18.69;65.44;101696.91;4914665;28;45606;-76
2021/08/26 08:40:59;;;;;;;;;6.50;4.00;;;;;18.71;65.67;101705.69;4898571;28;45774;-76
2021/08/26 08:43:25;;;;;;;;;4.00;4.00;;;;;18.71;65.51;101701.22;4905894;28;45538;-76
2021/08/26 08:45:52;;;;;;;;;5.25;4.00;;;;;18.69;65.27;101704.91;4921909;28;45414;-77
2021/08/26 08:48:18;;;;;;;;;6.00;3.00;;;;;18.65;65.80;101701.53;4893720;29;47019;-76
2021/08/26 08:50:45;;;;;;;;;7.75;4.50;;;;;18.69;65.54;101702.25;4915418;28;45353;-76
2021/08/26 08:53:16;;;;;;;;;7.50;5.25;;;;;18.71;65.18;101701.22;4921683;28;45587;-76
2021/08/26 08:55:43;;;;;;;;;7.25;5.75;;;;;18.73;65.97;101696.69;4921132;28;45746;-79
2021/08/26 08:58:08;;;;;;;;;6.00;5.00;;;;;18.79;65.28;101695.50;4922787;28;46434;-78
2021/08/26 09:00:34;;;;;;;;;6.50;5.00;;;;;18.80;65.47;101691.88;4905035;28;45295;-79
2021/08/26 09:03:00;;;;;;;;;7.00;6.00;;;;;18.83;65.80;101690.84;4906022;28;45146;-79
2021/08/26 09:05:46;;;;;;;;;9.00;7.00;;;;;18.88;65.35;101695.00;4905844;28;46064;-78
2021/08/26 09:08:12;;;;;;;;;5.25;4.25;;;;;18.89;65.19;101685.19;4905977;28;47069;-78
2021/08/26 09:10:37;;;;;;;;;5.25;4.50;;;;;18.92;65.53;101689.50;4922460;28;45432;-78
2021/08/26 09:13:02;;;;;;;;;6.00;4.50;;;;;18.93;65.54;101693.88;4922752;28;45708;-79
2021/08/26 09:15:30;;;;;;;;;5.75;5.00;;;;;18.99;65.81;101690.88;4922711;28;45469;-79
2021/08/26 09:18:16;;;;;;;;;5.00;5.00;;;;;19.04;65.18;101691.50;4922785;28;45654;-79
2021/08/26 09:20:55;;;;;;;;;6.25;6.25;;;;;19.07;66.04;101698.47;4922374;28;45618;-78
2021/08/26 09:23:22;;;;;;;;;6.25;6.25;;;;;19.10;65.69;101696.50;4925880;28;45399;-76
2021/08/26 09:25:48;;;;;;;;;3.00;3.00;;;;;19.07;66.43;101707.31;4923184;28;45451;-76
2021/08/26 09:28:33;;;;;;;;;10.50;6.00;;;;;19.05;66.58;101701.22;4922627;28;45429;-76
2021/08/26 09:31:18;;;;;;;;;7.25;5.00;;;;;19.03;66.62;101704.91;4922652;28;45246;-76
2021/08/26 09:33:57;;;;;;;;;7.50;4.00;;;;;19.07;66.93;101698.47;4905480;28;45364;-76
2021/08/26 09:36:26;;;;;;;;;7.00;4.25;;;;;19.05;66.80;101703.03;4920498;28;45310;-75
2021/08/26 09:39:07;;;;;;;;;5.50;5.00;;;;;19.01;66.91;101694.34;4922505;28;45514;-76
2021/08/26 09:42:06;;;;;;;;;4.25;4.25;;;;;19.05;67.32;101695.03;4928122;28;45481;-77
2021/08/26 09:44:36;;;;;;;;;5.00;4.00;;;;;19.06;67.54;101692.28;4887376;29;45372;-76
2021/08/26 09:47:06;;;;;;;;;6.75;5.00;;;;;19.07;67.23;101687.81;4903539;29;45291;-76
2021/08/26 09:49:41;;;;;;;;;4.25;4.00;;;;;19.07;67.59;101683.34;4903730;28;45424;-76
2021/08/26 09:52:16;;;;;;;;;5.25;3.00;;;;;19.16;67.74;101683.81;4903367;29;45672;-76
2021/08/26 09:54:47;;;;;;;;;4.00;3.00;;;;;19.25;67.16;101678.00;4903394;28;45472;-76
2021/08/26 09:57:29;;;;;;;;;7.00;5.00;;;;;19.30;66.87;101680.41;4903418;29;45228;-76
2021/08/26 09:59:56;;;;;;;;;6.50;3.75;;;;;19.31;66.85;101690.13;4885634;29;48473;-76
2021/08/26 10:02:29;;;;;;;;;6.75;5.00;;;;;19.31;66.86;101688.28;4903024;29;45300;-76
2021/08/26 10:04:55;;;;;;;;;3.00;3.00;;;;;19.32;66.88;101681.16;4903177;29;45328;-76
2021/08/26 10:07:24;;;;;;;;;2.25;2.25;;;;;19.38;66.63;101679.97;4903439;29;45758;-76
2021/08/26 10:09:49;;;;;;;;;2.75;2.75;;;;;19.42;66.42;101676.19;4902764;29;45300;-76
2021/08/26 10:12:16;;;;;;;;;5.50;3.75;;;;;19.54;66.18;101687.97;4902916;29;45223;-76
2021/08/26 10:14:47;;;;;;;;;3.75;3.75;;;;;19.58;65.85;101678.00;4902101;29;45606;-76
2021/08/26 10:17:13;;;;;;;;;2.50;2.50;;;;;19.60;65.97;101676.09;4903276;29;45400;-76
2021/08/26 10:19:40;;;;;;;;;4.00;4.00;;;;;19.62;65.71;101672.41;4902957;29;46272;-76
2021/08/26 10:22:07;;;;;;;;;7.00;3.00;;;;;19.67;65.86;101659.66;4902346;29;45197;-76
2021/08/26 10:24:33;;;;;;;;;3.00;3.00;;;;;19.76;65.34;101668.06;4898380;29;45497;-76
2021/08/26 10:27:04;;;;;;;;;1.50;1.50;;;;;19.91;65.48;101666.31;4902891;29;45390;-76
2021/08/26 10:29:32;;;;;;;;;3.00;1.25;;;;;20.00;65.64;101664.94;4902307;28;45769;-76
2021/08/26 10:32:00;;;;;;;;;2.00;2.00;;;;;20.06;65.43;101664.56;4900537;28;45997;-76
2021/08/26 10:34:28;;;;;;;;;1.50;1.50;;;;;20.14;65.34;101664.16;4885951;29;45343;-76
2021/08/26 10:36:56;;;;;;;;;3.00;2.00;;;;;20.22;64.97;101671.72;4902841;29;45304;-76
2021/08/26 10:39:33;;;;;;;;;3.50;3.00;;;;;20.24;64.60;101662.66;4900385;29;46528;-76
2021/08/26 10:42:18;;;;;;;;;2.00;2.00;;;;;20.30;64.05;101666.75;4902932;28;45540;-76
2021/08/26 10:45:08;;;;;;;;;2.00;2.00;;;;;20.34;63.79;101664.78;4921545;28;45361;-76
2021/08/26 10:47:49;;;;;;;;;1.50;1.50;;;;;20.39;64.16;101667.16;4904665;28;46840;-76
2021/08/26 10:50:19;;;;;;;;;1.00;1.00;;;;;20.42;63.19;101673.16;4910994;28;47251;-76
2021/08/26 10:53:20;;;;;;;;;2.00;2.00;;;;;20.42;63.49;101665.16;4925512;28;45525;-76
2021/08/26 10:55:48;;;;;;;;;3.00;3.00;;;;;20.44;63.26;101663.28;4921606;28;45404;-76
2021/08/26 10:58:26;;;;;;;;;3.50;3.50;;;;;20.50;63.37;101658.50;4903264;28;46186;-76
2021/08/26 11:01:00;;;;;;;;;2.00;2.00;;;;;20.53;63.19;101661.84;4903814;28;47113;-76
2021/08/26 11:03:34;;;;;;;;;1.25;0.75;;;;;20.54;62.86;101662.72;4921748;28;45497;-76
2021/08/26 11:06:19;;;;;;;;;1.50;1.00;;;;;20.53;62.99;101663.66;4921784;28;45383;-76
2021/08/26 11:08:56;;;;;;;;;1.25;1.25;;;;;20.54;62.67;101674.25;4921158;28;45245;-76
2021/08/26 11:11:30;;;;;;;;;3.50;1.00;;;;;20.43;62.97;101685.56;4920347;28;45463;-76
2021/08/26 11:14:01;;;;;;;;;2.00;1.00;;;;;20.27;63.69;101682.97;4921133;28;45264;-76
2021/08/26 11:16:27;;;;;;;;;4.00;1.00;;;;;20.15;64.29;101689.88;4920677;28;45418;-76
2021/08/26 11:19:15;;;;;;;;;2.00;2.00;;;;;20.00;64.74;101687.13;4921618;28;45433;-76
2021/08/26 11:21:44;;;;;;;;;3.50;1.25;;;;;19.87;65.33;101688.81;4920779;28;45341;-76
2021/08/26 11:24:30;;;;;;;;;3.25;1.75;;;;;19.82;65.49;101680.22;4921033;28;45587;-76
2021/08/26 11:27:07;;;;;;;;;1.25;1.25;;;;;19.83;65.09;101679.28;4921339;28;45306;-76